Time;durP1;ratioP1;P1;durP2;ratioP2;P2;SDS_P1;SDS_P2;PMS_P1;PMS_P2;Temp;Humidity;BMP_temperature;BMP_pressure;BME280_temperature;BME280_humidity;BME280_pressure;Samples;Min_cycle;Max_cycle;Signal;HPM_P1;HPM_P2
2023/07/25 00:00:32;;;;;;;12.52;7.45;;;;;;;20.75;53.31;94542.22;5075091;28;20032;-78
2023/07/25 00:02:58;;;;;;;14.23;7.60;;;;;;;20.83;53.01;94538.56;5092049;28;20039;-78
2023/07/25 00:05:23;;;;;;;12.43;7.93;;;;;;;20.84;53.21;94550.78;5092081;28;20036;-78
2023/07/25 00:07:49;;;;;;;17.35;7.60;;;;;;;20.73;53.51;94543.41;5091452;28;20052;-78
2023/07/25 00:10:15;;;;;;;12.65;7.30;;;;;;;20.64;53.40;94544.56;5074875;28;20448;-78
2023/07/25 00:12:40;;;;;;;13.50;7.63;;;;;;;20.67;54.07;94557.38;5091708;28;20474;-78
2023/07/25 00:15:08;;;;;;;11.80;7.10;;;;;;;20.61;53.94;94566.06;5091285;28;20065;-78
2023/07/25 00:17:34;;;;;;;9.00;6.95;;;;;;;20.65;54.13;94562.03;5091486;28;20032;-78
2023/07/25 00:19:59;;;;;;;13.30;7.18;;;;;;;20.64;54.31;94565.66;5074507;28;20422;-78
2023/07/25 00:22:25;;;;;;;12.77;7.07;;;;;;;20.65;54.39;94554.13;5091111;28;20032;-78
2023/07/25 00:24:50;;;;;;;16.30;7.65;;;;;;;20.44;54.54;94545.25;5091618;28;20040;-78
2023/07/25 00:27:16;;;;;;;10.35;6.88;;;;;;;20.46;54.68;94547.69;5074581;28;20028;-78
2023/07/25 00:29:41;;;;;;;10.55;6.72;;;;;;;20.51;54.07;94540.81;5091956;28;20024;-78
2023/07/25 00:32:07;;;;;;;12.48;6.95;;;;;;;20.46;53.81;94526.59;5091568;28;20051;-78
2023/07/25 00:34:32;;;;;;;11.93;7.35;;;;;;;20.60;53.00;94532.78;5091696;28;20032;-78
2023/07/25 00:36:58;;;;;;;13.00;7.30;;;;;;;20.71;53.05;94534.88;5092568;28;20032;-79
2023/07/25 00:39:23;;;;;;;12.98;7.63;;;;;;;20.85;52.96;94526.00;5073771;28;20032;-78
2023/07/25 00:41:51;;;;;;;15.82;8.07;;;;;;;20.82;53.40;94513.19;5055354;28;20040;-78
2023/07/25 00:44:16;;;;;;;14.23;7.43;;;;;;;20.74;53.39;94519.44;5054870;28;20127;-78
2023/07/25 00:46:42;;;;;;;12.80;6.93;;;;;;;20.90;53.91;94526.22;5063652;28;20070;-79
2023/07/25 00:49:07;;;;;;;14.10;7.07;;;;;;;20.89;53.17;94523.75;5091944;28;20390;-78
2023/07/25 00:51:32;;;;;;;13.25;7.10;;;;;;;20.80;54.00;94517.03;5074434;28;20032;-78
2023/07/25 00:53:58;;;;;;;13.27;7.20;;;;;;;20.76;52.97;94519.25;5091035;28;20036;-78
2023/07/25 00:56:23;;;;;;;14.18;7.80;;;;;;;20.85;52.64;94517.25;5073824;28;20475;-78
2023/07/25 00:58:49;;;;;;;11.52;7.03;;;;;;;20.92;52.12;94512.81;5073697;28;20527;-78
2023/07/25 01:01:14;;;;;;;11.30;7.50;;;;;;;20.97;52.27;94513.84;5090984;28;20032;-78
2023/07/25 01:03:39;;;;;;;13.82;7.82;;;;;;;20.97;52.43;94515.66;5090760;28;20031;-78
2023/07/25 01:06:07;;;;;;;12.43;7.93;;;;;;;21.02;52.40;94509.81;5090701;28;20502;-78
2023/07/25 01:08:32;;;;;;;11.25;7.13;;;;;;;20.97;52.25;94498.00;5091983;28;20044;-78
2023/07/25 01:10:58;;;;;;;12.73;8.07;;;;;;;20.96;52.34;94509.59;5073988;28;20027;-78
2023/07/25 01:13:24;;;;;;;12.02;7.57;;;;;;;21.05;52.57;94512.84;5090538;28;20421;-78
2023/07/25 01:15:49;;;;;;;11.90;7.40;;;;;;;21.12;52.78;94504.97;5089761;28;20036;-78
2023/07/25 01:18:15;;;;;;;10.05;7.13;;;;;;;21.17;52.58;94513.91;5074020;28;20028;-78
2023/07/25 01:20:40;;;;;;;11.88;7.90;;;;;;;20.98;53.11;94514.69;5073820;28;20047;-78
2023/07/25 01:23:06;;;;;;;14.82;8.07;;;;;;;20.95;53.24;94515.88;5056949;28;20023;-78
2023/07/25 01:25:31;;;;;;;10.95;7.32;;;;;;;20.98;53.25;94506.75;5090407;28;20028;-78
2023/07/25 01:27:56;;;;;;;10.90;8.23;;;;;;;21.04;53.59;94518.34;5073748;28;20570;-78
2023/07/25 01:30:22;;;;;;;14.48;8.40;;;;;;;21.00;53.76;94514.47;5069475;28;20040;-79
2023/07/25 01:32:50;;;;;;;14.55;8.23;;;;;;;20.92;53.52;94510.16;5071609;28;20043;-78
2023/07/25 01:35:15;;;;;;;11.38;7.47;;;;;;;20.88;53.60;94524.78;5066722;28;20039;-78
2023/07/25 01:37:41;;;;;;;12.55;8.10;;;;;;;20.86;53.84;94517.06;5073631;28;20032;-79
2023/07/25 01:40:07;;;;;;;12.73;8.27;;;;;;;20.79;53.86;94489.84;5073244;28;20032;-77
2023/07/25 01:42:33;;;;;;;11.77;7.68;;;;;;;20.92;53.61;94500.44;5090222;28;20097;-78
2023/07/25 01:44:58;;;;;;;14.52;7.90;;;;;;;20.80;53.84;94486.16;5089541;28;20460;-78
2023/07/25 01:47:25;;;;;;;16.33;7.85;;;;;;;20.77;53.65;94489.22;5090317;28;20474;-78
2023/07/25 01:49:52;;;;;;;11.55;8.32;;;;;;;20.74;54.02;94486.97;5073755;28;20525;-78
2023/07/25 01:52:18;;;;;;;13.18;8.15;;;;;;;20.75;54.00;94478.88;5088746;28;20032;-78
2023/07/25 01:54:43;;;;;;;12.13;7.65;;;;;;;20.80;54.08;94509.13;5091937;28;20059;-78
2023/07/25 01:57:09;;;;;;;12.82;8.13;;;;;;;20.76;53.86;94513.97;5094895;28;20282;-78
2023/07/25 01:59:34;;;;;;;13.38;7.75;;;;;;;20.42;54.26;94510.34;5094353;28;20032;-78
2023/07/25 02:01:59;;;;;;;10.82;7.72;;;;;;;20.67;54.10;94512.50;5067775;28;20032;-78
2023/07/25 02:04:25;;;;;;;10.63;7.05;;;;;;;20.72;54.40;94510.91;5076397;28;20032;-78
2023/07/25 02:06:50;;;;;;;13.75;8.35;;;;;;;20.67;54.37;94529.19;5095470;28;20027;-78
2023/07/25 02:09:16;;;;;;;13.23;7.80;;;;;;;20.55;54.44;94520.16;5095066;28;20555;-78
2023/07/25 02:11:41;;;;;;;12.57;7.22;;;;;;;20.64;54.06;94528.72;5094980;28;20032;-78
2023/07/25 02:14:06;;;;;;;10.82;7.20;;;;;;;20.69;54.83;94540.31;5093297;28;20024;-78
2023/07/25 02:16:36;;;;;;;14.98;7.20;;;;;;;20.28;55.73;94548.19;5093022;28;20100;-78
2023/07/25 02:19:02;;;;;;;12.25;7.72;;;;;;;20.11;55.80;94536.31;5077625;28;20405;-78
2023/07/25 02:21:27;;;;;;;12.93;7.88;;;;;;;20.04;56.38;94538.91;5060157;28;20032;-77
2023/07/25 02:23:53;;;;;;;13.18;7.82;;;;;;;20.08;56.40;94537.50;5068431;28;20033;-78
2023/07/25 02:26:18;;;;;;;14.10;8.18;;;;;;;20.28;56.18;94542.91;5075736;28;20032;-78
2023/07/25 02:28:43;;;;;;;13.18;7.35;;;;;;;20.12;56.06;94545.88;5093352;28;20081;-78
2023/07/25 02:31:09;;;;;;;10.52;7.22;;;;;;;20.20;56.43;94545.72;5075667;28;20478;-78
2023/07/25 02:33:35;;;;;;;11.48;7.05;;;;;;;20.03;56.64;94553.06;5075821;28;20028;-78
2023/07/25 02:36:00;;;;;;;11.48;7.88;;;;;;;19.83;57.10;94548.47;5062353;28;20024;-78
2023/07/25 02:38:26;;;;;;;13.20;7.70;;;;;;;20.02;57.13;94569.91;5093316;28;20405;-78
2023/07/25 02:40:51;;;;;;;12.05;7.57;;;;;;;19.86;57.28;94570.97;5094648;28;20081;-78
2023/07/25 02:43:16;;;;;;;14.40;8.10;;;;;;;19.80;56.99;94555.94;5075566;28;20039;-78
2023/07/25 02:45:42;;;;;;;12.32;8.00;;;;;;;19.90;56.97;94564.34;5072051;28;20512;-78
2023/07/25 02:48:07;;;;;;;11.52;7.88;;;;;;;20.02;57.29;94554.91;5092447;28;20036;-78
2023/07/25 02:50:33;;;;;;;12.75;8.02;;;;;;;20.13;57.36;94565.94;5094235;28;20028;-79
2023/07/25 02:52:58;;;;;;;13.55;7.93;;;;;;;20.07;57.39;94563.06;5092807;28;20276;-79
2023/07/25 02:55:24;;;;;;;15.10;8.55;;;;;;;20.22;57.46;94556.88;5076539;28;20035;-79
2023/07/25 02:57:49;;;;;;;13.38;8.23;;;;;;;20.18;57.63;94547.72;5076294;28;20032;-79
2023/07/25 03:00:14;;;;;;;13.35;8.27;;;;;;;20.12;57.74;94553.78;5075743;28;20020;-78
2023/07/25 03:02:40;;;;;;;11.88;7.68;;;;;;;20.11;57.23;94539.75;5094293;28;20032;-79
2023/07/25 03:05:06;;;;;;;13.18;8.13;;;;;;;20.16;56.86;94541.81;5094050;28;20040;-78
2023/07/25 03:07:31;;;;;;;14.05;7.88;;;;;;;20.20;56.72;94543.88;5093859;28;20036;-79
2023/07/25 03:09:56;;;;;;;11.23;8.05;;;;;;;20.13;56.83;94539.56;5076033;28;20028;-78
2023/07/25 03:12:22;;;;;;;15.40;8.20;;;;;;;20.21;56.68;94545.50;5075481;28;20043;-78
2023/07/25 03:14:47;;;;;;;12.75;7.93;;;;;;;20.17;56.97;94546.06;5093416;28;20055;-78
2023/07/25 03:17:12;;;;;;;12.25;8.40;;;;;;;20.13;57.06;94544.84;5075948;28;20077;-78
2023/07/25 03:19:38;;;;;;;13.38;7.68;;;;;;;20.01;57.50;94534.81;5067428;28;20032;-78
2023/07/25 03:22:04;;;;;;;11.27;7.93;;;;;;;20.03;57.67;94543.38;5057809;28;20478;-77
2023/07/25 03:24:29;;;;;;;12.32;8.35;;;;;;;20.03;58.03;94543.38;5091134;28;20085;-78
2023/07/25 03:26:57;;;;;;;14.48;8.15;;;;;;;19.96;57.83;94542.50;5092077;28;20020;-78
2023/07/25 03:29:22;;;;;;;13.70;8.38;;;;;;;20.01;57.45;94532.19;5092369;28;20482;-78
2023/07/25 03:31:48;;;;;;;14.25;7.22;;;;;;;20.07;56.96;94520.06;5071918;28;20031;-77
2023/07/25 03:34:13;;;;;;;18.48;8.25;;;;;;;20.14;56.33;94539.34;5081099;28;20093;-77
2023/07/25 03:36:39;;;;;;;12.63;7.90;;;;;;;20.17;56.71;94538.16;5091938;28;20020;-78
2023/07/25 03:39:04;;;;;;;11.98;7.65;;;;;;;20.11;56.69;94544.22;5075178;28;20039;-77
2023/07/25 03:41:29;;;;;;;12.02;7.95;;;;;;;20.14;56.66;94551.72;5091850;28;20430;-77
2023/07/25 03:43:55;;;;;;;11.70;7.75;;;;;;;20.30;56.94;94541.69;5092542;28;20100;-77
2023/07/25 03:46:20;;;;;;;13.05;8.20;;;;;;;20.12;56.78;94540.59;5092808;28;20487;-78
2023/07/25 03:48:46;;;;;;;13.70;8.02;;;;;;;20.20;56.50;94549.16;5058589;28;20046;-78
2023/07/25 03:51:11;;;;;;;13.05;7.75;;;;;;;20.29;55.95;94550.63;5074961;28;20039;-78
2023/07/25 03:53:36;;;;;;;14.20;8.10;;;;;;;20.44;56.49;94547.88;5055105;28;20032;-78
2023/07/25 03:56:02;;;;;;;16.83;8.05;;;;;;;20.42;56.86;94543.81;5074572;28;20472;-78
2023/07/25 03:58:28;;;;;;;14.68;8.07;;;;;;;20.47;56.48;94542.22;5075071;28;20028;-78
2023/07/25 04:00:54;;;;;;;15.90;8.43;;;;;;;20.51;56.57;94551.38;5091311;28;20415;-77
2023/07/25 04:03:19;;;;;;;14.57;7.70;;;;;;;20.36;56.56;94531.41;5093331;28;20028;-78
2023/07/25 04:05:44;;;;;;;14.77;7.95;;;;;;;20.48;56.82;94540.41;5092722;28;20028;-78
2023/07/25 04:08:10;;;;;;;14.90;8.18;;;;;;;20.46;56.87;94543.22;5053972;28;20053;-78
2023/07/25 04:10:38;;;;;;;12.32;7.38;;;;;;;20.48;56.72;94540.41;5054978;28;20429;-78
2023/07/25 04:13:03;;;;;;;14.50;7.85;;;;;;;20.59;56.42;94536.41;5091192;28;20135;-78
2023/07/25 04:15:29;;;;;;;12.52;7.53;;;;;;;20.61;56.14;94539.69;5073437;28;20485;-77
2023/07/25 04:17:54;;;;;;;15.52;8.07;;;;;;;20.89;55.29;94543.06;5072533;28;20024;-77
2023/07/25 04:20:20;;;;;;;11.52;8.25;;;;;;;20.85;54.13;94538.38;5089982;28;20397;-78
2023/07/25 04:22:45;;;;;;;13.82;8.05;;;;;;;21.64;52.31;94557.09;5092520;28;20379;-78
2023/07/25 04:25:10;;;;;;;14.10;7.78;;;;;;;22.17;51.75;94553.66;5090547;28;20043;-78
2023/07/25 04:27:36;;;;;;;14.93;8.35;;;;;;;22.59;50.44;94561.38;5090472;28;20077;-78
2023/07/25 04:30:02;;;;;;;11.27;8.05;;;;;;;22.96;49.54;94555.38;5090258;28;20478;-78
2023/07/25 04:32:27;;;;;;;13.52;7.75;;;;;;;23.39;48.91;94556.59;5090314;28;20035;-79
2023/07/25 04:34:53;;;;;;;10.77;7.63;;;;;;;23.98;47.75;94559.91;5089677;28;20021;-78
2023/07/25 04:37:18;;;;;;;12.82;7.32;;;;;;;24.37;46.03;94548.16;5091392;28;20174;-79
2023/07/25 04:39:44;;;;;;;13.93;7.82;;;;;;;24.73;45.50;94551.91;5090884;28;20032;-78
2023/07/25 04:42:09;;;;;;;14.43;8.07;;;;;;;25.26;44.38;94546.00;5090644;28;20034;-78
2023/07/25 04:44:34;;;;;;;14.63;7.70;;;;;;;25.60;43.68;94541.03;5057259;28;20486;-78
2023/07/25 04:47:00;;;;;;;10.68;7.95;;;;;;;25.96;42.75;94526.00;5048102;28;20017;-78
2023/07/25 04:49:25;;;;;;;18.05;8.50;;;;;;;26.39;41.86;94517.69;5078385;28;20493;-78
2023/07/25 04:51:51;;;;;;;12.10;8.00;;;;;;;26.35;41.86;94510.38;5090328;28;20398;-79
2023/07/25 04:54:16;;;;;;;12.05;8.27;;;;;;;26.29;41.37;94531.56;5073497;28;20070;-78
2023/07/25 04:56:41;;;;;;;12.80;8.10;;;;;;;26.33;41.35;94531.09;5074064;28;20069;-78
2023/07/25 04:59:07;;;;;;;13.32;8.32;;;;;;;24.80;44.83;94526.09;5090599;28;20387;-78
2023/07/25 05:01:33;;;;;;;14.43;8.85;;;;;;;25.35;44.06;94523.41;5056896;28;20040;-78
2023/07/25 05:03:58;;;;;;;19.02;8.30;;;;;;;25.32;44.45;94515.84;5090401;28;20029;-78
2023/07/25 05:06:24;;;;;;;15.68;8.52;;;;;;;25.23;44.02;94503.13;5090326;28;20040;-77
2023/07/25 05:08:49;;;;;;;14.93;8.20;;;;;;;25.57;43.74;94515.69;5089768;28;20533;-78
2023/07/25 05:11:15;;;;;;;23.05;8.68;;;;;;;25.40;43.58;94515.53;5067896;28;20123;-78
2023/07/25 05:13:40;;;;;;;14.63;7.88;;;;;;;25.35;43.91;94514.59;5093493;28;20474;-78
2023/07/25 05:16:07;;;;;;;14.68;8.50;;;;;;;25.30;44.05;94517.94;5098020;28;20103;-77
2023/07/25 05:18:32;;;;;;;14.40;8.38;;;;;;;25.43;43.69;94514.28;5090024;28;20523;-77
2023/07/25 05:20:57;;;;;;;13.23;8.10;;;;;;;25.48;43.40;94517.06;5091390;28;20028;-78
2023/07/25 05:23:23;;;;;;;13.75;8.35;;;;;;;25.48;43.28;94503.78;5094296;28;20393;-78
2023/07/25 05:25:48;;;;;;;15.05;8.57;;;;;;;25.76;43.03;94511.13;5067094;28;20040;-78
2023/07/25 05:28:14;;;;;;;28.58;9.30;;;;;;;25.99;42.26;94512.22;5087697;28;20032;-78
2023/07/25 05:30:39;;;;;;;32.97;10.25;;;;;;;26.05;42.50;94511.34;5090099;28;20036;-78
2023/07/25 05:33:06;;;;;;;39.15;10.32;;;;;;;26.36;42.26;94514.69;5089211;28;20090;-77
2023/07/25 05:35:31;;;;;;;32.20;9.82;;;;;;;26.29;41.86;94523.59;5091087;28;20060;-77
2023/07/25 05:37:56;;;;;;;20.63;10.20;;;;;;;26.02;41.85;94520.59;5089752;28;20056;-78
2023/07/25 05:40:22;;;;;;;19.60;9.73;;;;;;;26.11;42.63;94507.75;5055652;28;20054;-77
2023/07/25 05:42:47;;;;;;;23.88;9.95;;;;;;;26.00;42.66;94524.50;5072941;28;20040;-78
2023/07/25 05:45:13;;;;;;;16.73;10.15;;;;;;;25.91;42.67;94507.25;5069159;28;20054;-78
2023/07/25 05:47:40;;;;;;;19.58;9.95;;;;;;;25.88;42.60;94518.34;5089242;28;20035;-78
2023/07/25 05:50:06;;;;;;;18.15;10.27;;;;;;;25.88;43.26;94519.16;5090101;28;20036;-77
2023/07/25 05:52:32;;;;;;;16.83;9.50;;;;;;;25.91;42.98;94512.56;5081476;28;20444;-78
2023/07/25 05:54:57;;;;;;;18.35;9.98;;;;;;;26.13;42.50;94499.50;5090990;28;20028;-78
2023/07/25 05:57:22;;;;;;;15.00;9.70;;;;;;;26.56;40.80;94506.38;5090489;28;20047;-78
2023/07/25 05:59:48;;;;;;;16.38;9.68;;;;;;;26.76;39.92;94496.13;5072467;28;20490;-78
2023/07/25 06:02:14;;;;;;;15.27;9.40;;;;;;;26.87;40.03;94511.28;5089838;28;20093;-78
2023/07/25 06:04:39;;;;;;;13.80;8.77;;;;;;;26.85;40.07;94523.22;5072426;28;20453;-77
2023/07/25 06:07:05;;;;;;;13.77;9.43;;;;;;;26.94;39.79;94511.13;5066962;28;20438;-78
2023/07/25 06:09:31;;;;;;;14.75;9.45;;;;;;;26.33;40.65;94494.66;5068898;28;20049;-78
2023/07/25 06:11:56;;;;;;;17.45;9.43;;;;;;;26.23;41.05;94497.91;5036306;28;20033;-77
2023/07/25 06:14:22;;;;;;;15.95;9.48;;;;;;;26.43;40.55;94486.09;5069585;28;20044;-77
2023/07/25 06:16:47;;;;;;;16.13;9.45;;;;;;;27.02;39.99;94494.78;5069275;28;20478;-77
2023/07/25 06:19:13;;;;;;;16.88;8.90;;;;;;;26.76;40.14;94490.00;5035857;28;20032;-77
2023/07/25 06:21:38;;;;;;;15.82;9.32;;;;;;;26.58;40.31;94475.81;5052700;28;20029;-76
2023/07/25 06:24:03;;;;;;;16.00;9.07;;;;;;;27.29;39.35;94491.59;5071379;28;20378;-78
2023/07/25 06:26:29;;;;;;;13.95;8.88;;;;;;;27.05;39.48;94489.00;5069487;28;20040;-77
2023/07/25 06:28:54;;;;;;;14.05;9.45;;;;;;;27.13;39.16;94477.94;5069352;28;20031;-78
2023/07/25 06:31:20;;;;;;;16.77;9.68;;;;;;;26.82;40.12;94470.41;5069436;28;20029;-77
2023/07/25 06:33:45;;;;;;;17.63;9.70;;;;;;;26.76;40.41;94471.34;5070686;28;20032;-77
2023/07/25 06:36:11;;;;;;;15.07;9.18;;;;;;;26.83;40.68;94466.69;5069334;28;20037;-78
2023/07/25 06:38:36;;;;;;;15.98;9.27;;;;;;;26.99;40.91;94457.13;5077238;28;20024;-78
2023/07/25 06:41:01;;;;;;;15.02;9.32;;;;;;;26.86;40.93;94451.06;5093058;28;20443;-78
2023/07/25 06:43:27;;;;;;;15.90;8.95;;;;;;;26.91;41.14;94451.16;5094817;28;20555;-78
2023/07/25 06:45:53;;;;;;;21.98;9.75;;;;;;;26.93;41.58;94448.25;5093182;28;20028;-78
2023/07/25 06:48:18;;;;;;;17.73;9.38;;;;;;;26.96;41.85;94432.56;5092998;28;20073;-77
2023/07/25 06:50:44;;;;;;;14.40;8.55;;;;;;;27.48;40.56;94418.34;5076376;28;20036;-77
2023/07/25 06:53:10;;;;;;;17.05;9.18;;;;;;;27.80;40.15;94439.13;5076166;28;20099;-77
2023/07/25 06:55:37;;;;;;;19.35;9.35;;;;;;;27.61;39.88;94435.91;5094125;28;20059;-78
2023/07/25 06:58:02;;;;;;;17.50;9.40;;;;;;;27.55;40.05;94435.00;5059304;28;20020;-77
2023/07/25 07:00:30;;;;;;;19.23;9.93;;;;;;;27.92;39.75;94441.75;5092975;28;20074;-77
2023/07/25 07:02:56;;;;;;;14.43;9.25;;;;;;;27.60;40.00;94435.06;5059578;28;20051;-77
2023/07/25 07:05:21;;;;;;;16.65;9.65;;;;;;;27.76;39.98;94436.13;5075996;28;20040;-78
2023/07/25 07:07:47;;;;;;;15.32;9.43;;;;;;;27.86;39.45;94443.53;5092292;28;20047;-78
2023/07/25 07:10:13;;;;;;;15.25;9.48;;;;;;;27.93;39.30;94446.81;5092774;28;20494;-77
2023/07/25 07:12:45;;;;;;;14.00;9.48;;;;;;;27.96;39.24;94446.31;5093922;28;20039;-77
2023/07/25 07:15:11;;;;;;;16.55;9.45;;;;;;;28.04;38.61;94447.78;5092359;28;20043;-77
2023/07/25 07:17:36;;;;;;;15.75;9.45;;;;;;;28.13;38.58;94440.97;5075680;28;20024;-78
2023/07/25 07:20:02;;;;;;;16.13;9.77;;;;;;;28.12;37.69;94442.03;5092668;28;20544;-78
2023/07/25 07:22:28;;;;;;;15.52;9.15;;;;;;;28.13;37.73;94437.50;5093752;28;20406;-78
2023/07/25 07:24:57;;;;;;;15.18;9.48;;;;;;;28.11;38.39;94439.59;5075537;28;20028;-78
2023/07/25 07:27:23;;;;;;;14.52;8.85;;;;;;;28.24;38.59;94431.25;5092495;28;20028;-78
2023/07/25 07:29:48;;;;;;;14.50;8.98;;;;;;;28.31;37.69;94421.22;5075504;28;20039;-77
2023/07/25 07:32:14;;;;;;;17.25;9.52;;;;;;;28.74;37.91;94436.47;5075317;28;20538;-77
2023/07/25 07:34:41;;;;;;;13.25;9.35;;;;;;;28.40;37.88;94422.38;5092223;28;20039;-79
2023/07/25 07:37:07;;;;;;;15.70;9.73;;;;;;;28.64;37.02;94443.53;5092204;28;20085;-79
2023/07/25 07:39:32;;;;;;;18.27;9.63;;;;;;;28.81;37.21;94435.47;5075180;28;20021;-77
2023/07/25 07:41:57;;;;;;;14.00;9.35;;;;;;;28.87;37.08;94432.59;5092033;28;20024;-77
2023/07/25 07:44:23;;;;;;;14.63;9.02;;;;;;;28.90;37.14;94425.97;5092138;28;20028;-77
2023/07/25 07:46:48;;;;;;;17.77;9.15;;;;;;;29.05;36.05;94430.69;5093072;28;20448;-76
2023/07/25 07:49:14;;;;;;;15.90;8.98;;;;;;;29.12;35.88;94434.78;5091794;28;20325;-76
2023/07/25 07:51:39;;;;;;;17.48;9.65;;;;;;;29.06;35.46;94424.25;5090561;28;20035;-77
2023/07/25 07:54:05;;;;;;;12.45;8.73;;;;;;;29.12;35.42;94425.97;5074948;28;20039;-77
2023/07/25 07:56:30;;;;;;;15.13;8.88;;;;;;;28.92;36.11;94430.00;5091776;28;20036;-76
2023/07/25 07:58:56;;;;;;;18.80;9.57;;;;;;;29.19;35.12;94426.53;5058292;28;20474;-77
2023/07/25 08:01:21;;;;;;;14.88;8.73;;;;;;;29.42;34.91;94412.06;5091489;28;20417;-77
2023/07/25 08:03:47;;;;;;;17.17;9.38;;;;;;;29.66;34.71;94414.44;5091730;28;20113;-77
2023/07/25 08:06:12;;;;;;;16.35;8.93;;;;;;;29.54;35.13;94403.88;5074652;28;20093;-76
2023/07/25 08:08:38;;;;;;;12.93;9.07;;;;;;;29.87;34.99;94399.34;5057824;28;20147;-77
2023/07/25 08:11:03;;;;;;;16.77;9.43;;;;;;;29.97;34.26;94391.34;5074638;28;20105;-77
2023/07/25 08:13:29;;;;;;;16.55;9.45;;;;;;;29.91;34.23;94397.75;5092360;28;20447;-77
2023/07/25 08:15:54;;;;;;;19.27;9.95;;;;;;;29.94;35.26;94397.22;5092515;28;20464;-77
2023/07/25 08:18:20;;;;;;;16.88;9.60;;;;;;;30.09;34.98;94389.31;5057727;28;20127;-77
2023/07/25 08:20:45;;;;;;;16.83;9.27;;;;;;;29.97;34.56;94391.34;5091233;28;20032;-77
2023/07/25 08:23:11;;;;;;;17.33;9.65;;;;;;;30.13;34.08;94385.03;5057649;28;20146;-77
2023/07/25 08:25:40;;;;;;;14.90;8.88;;;;;;;30.62;33.35;94376.72;5091188;28;20512;-76
2023/07/25 08:28:05;;;;;;;18.23;9.00;;;;;;;30.69;33.60;94388.00;5074192;28;20035;-77
2023/07/25 08:30:31;;;;;;;13.63;8.50;;;;;;;30.22;33.90;94383.50;5074186;28;20024;-77
2023/07/25 08:32:57;;;;;;;16.35;9.18;;;;;;;30.58;32.21;94388.22;5090860;28;20028;-76
2023/07/25 08:35:22;;;;;;;17.38;10.35;;;;;;;30.50;32.51;94394.88;5057255;28;20410;-77
2023/07/25 08:37:48;;;;;;;19.23;10.27;;;;;;;30.59;32.76;94374.56;5090810;28;20036;-76
2023/07/25 08:40:13;;;;;;;16.33;10.00;;;;;;;30.41;33.14;94375.03;5090955;28;20077;-76
2023/07/25 08:42:41;;;;;;;15.07;9.80;;;;;;;30.36;33.06;94373.13;5090995;28;20467;-77
2023/07/25 08:45:07;;;;;;;15.65;10.10;;;;;;;30.43;32.44;94362.19;5074136;28;20050;-77
2023/07/25 08:47:33;;;;;;;16.15;9.90;;;;;;;30.66;32.05;94360.94;5073890;28;20115;-77
2023/07/25 08:49:58;;;;;;;15.23;10.50;;;;;;;30.61;31.74;94364.38;5073859;28;20467;-77
2023/07/25 08:52:26;;;;;;;16.13;9.98;;;;;;;30.38;32.58;94354.13;5073766;28;20032;-77
2023/07/25 08:54:51;;;;;;;17.30;9.98;;;;;;;30.78;32.71;94363.38;5073719;28;20036;-77
2023/07/25 08:57:18;;;;;;;17.80;10.00;;;;;;;30.68;32.55;94354.22;5057104;28;20402;-77
2023/07/25 08:59:47;;;;;;;15.00;9.70;;;;;;;30.60;31.58;94349.38;5073777;28;20039;-76
2023/07/25 09:02:12;;;;;;;17.50;9.35;;;;;;;30.96;32.40;94360.22;5073142;28;20028;-77
2023/07/25 09:04:37;;;;;;;16.40;9.45;;;;;;;31.50;31.73;94346.34;5090572;28;20043;-77
2023/07/25 09:07:03;;;;;;;17.30;9.02;;;;;;;31.50;31.41;94351.72;5090424;28;20460;-76
2023/07/25 09:09:29;;;;;;;15.98;9.43;;;;;;;31.31;31.28;94355.97;5090017;28;20098;-77
2023/07/25 09:11:54;;;;;;;18.63;8.55;;;;;;;31.43;31.32;94353.88;5091556;28;20024;-77
2023/07/25 09:14:19;;;;;;;18.58;9.48;;;;;;;31.71;30.36;94351.72;5073291;28;20074;-77
2023/07/25 09:16:45;;;;;;;13.02;8.45;;;;;;;31.93;30.38;94341.50;5090094;28;20073;-77
2023/07/25 09:19:11;;;;;;;17.25;9.30;;;;;;;31.93;29.60;94346.06;5056531;28;20406;-77
2023/07/25 09:21:50;;;;;;;14.35;8.93;;;;;;;31.75;30.20;94317.88;5056647;28;20043;-77
2023/07/25 09:24:15;;;;;;;14.27;8.98;;;;;;;31.60;30.91;94337.50;5073694;28;20040;-77
2023/07/25 09:26:41;;;;;;;11.50;8.73;;;;;;;31.77;30.96;94327.28;5091350;28;20038;-78
2023/07/25 09:29:07;;;;;;;16.67;8.30;;;;;;;32.18;30.05;94321.00;5056464;28;20028;-78
2023/07/25 09:31:41;;;;;;;19.42;8.98;;;;;;;32.29;30.28;94325.28;5056567;28;20111;-79
2023/07/25 09:34:07;;;;;;;16.90;9.65;;;;;;;32.20;31.24;94324.22;5074217;28;20516;-77
2023/07/25 09:36:32;;;;;;;17.35;9.57;;;;;;;32.21;30.84;94317.78;5090197;28;20036;-78
2023/07/25 09:38:58;;;;;;;14.10;9.15;;;;;;;32.04;31.03;94329.66;5090096;28;20031;-77
2023/07/25 09:41:24;;;;;;;18.85;8.82;;;;;;;32.21;30.59;94323.97;5089892;28;20119;-77
2023/07/25 09:43:53;;;;;;;15.85;9.20;;;;;;;32.43;31.31;94317.41;5073221;28;20537;-77
2023/07/25 09:46:18;;;;;;;16.48;8.80;;;;;;;32.55;31.16;94317.94;5091221;28;20032;-77
2023/07/25 09:48:48;;;;;;;15.73;8.70;;;;;;;32.48;30.83;94326.31;5090145;28;20036;-77
2023/07/25 09:51:13;;;;;;;23.17;8.57;;;;;;;32.59;30.28;94312.81;5090957;28;20459;-77
2023/07/25 09:53:49;;;;;;;13.05;8.55;;;;;;;32.64;30.45;94310.09;5073006;28;20078;-78
2023/07/25 09:56:21;;;;;;;15.35;8.70;;;;;;;32.73;30.42;94305.75;5090368;28;20093;-77
2023/07/25 09:58:51;;;;;;;17.48;8.60;;;;;;;32.76;30.15;94305.19;5073643;28;20036;-78
2023/07/25 10:01:16;;;;;;;19.02;9.52;;;;;;;32.61;30.46;94311.44;5089966;28;20036;-77
2023/07/25 10:03:43;;;;;;;17.67;8.63;;;;;;;32.74;31.01;94311.94;5073075;28;20062;-78
2023/07/25 10:06:10;;;;;;;14.82;8.60;;;;;;;32.88;31.11;94302.97;5089609;28;20103;-77
2023/07/25 10:08:36;;;;;;;19.90;9.40;;;;;;;32.91;31.24;94294.34;5089716;28;20048;-77
2023/07/25 10:11:02;;;;;;;13.77;8.63;;;;;;;33.01;30.34;94290.00;5056149;28;20081;-77
2023/07/25 10:13:28;;;;;;;14.63;9.20;;;;;;;32.84;30.40;94287.66;5056054;28;20044;-78
2023/07/25 10:15:54;;;;;;;16.20;9.55;;;;;;;33.04;30.27;94279.50;5060042;28;20194;-77
2023/07/25 10:18:21;;;;;;;19.25;8.60;;;;;;;32.97;30.81;94278.16;5077143;28;20481;-78
2023/07/25 10:20:50;;;;;;;14.98;8.80;;;;;;;33.13;30.75;94274.31;5077035;28;20043;-78
2023/07/25 10:23:16;;;;;;;17.25;8.73;;;;;;;33.35;31.18;94263.91;5094023;28;20020;-78
2023/07/25 10:25:41;;;;;;;17.42;8.93;;;;;;;33.17;30.30;94256.50;5076970;28;20036;-78
2023/07/25 10:28:07;;;;;;;14.85;9.23;;;;;;;33.40;30.32;94263.03;5093784;28;20106;-78
2023/07/25 10:30:41;;;;;;;20.70;9.35;;;;;;;33.52;30.23;94254.59;5093778;28;20036;-77
2023/07/25 10:33:07;;;;;;;17.38;8.75;;;;;;;33.47;30.71;94247.38;5093506;28;20032;-78
2023/07/25 10:35:46;;;;;;;17.95;9.75;;;;;;;33.55;30.19;94246.78;5076368;28;20024;-78
2023/07/25 10:38:32;;;;;;;14.30;8.48;;;;;;;33.66;30.83;94236.72;5093166;28;20131;-78
2023/07/25 10:41:08;;;;;;;14.15;8.63;;;;;;;33.58;30.51;94237.34;5077756;28;20036;-78
2023/07/25 10:44:00;;;;;;;16.88;8.88;;;;;;;33.74;30.74;94233.41;5094913;28;20043;-78
2023/07/25 10:46:32;;;;;;;13.50;8.70;;;;;;;33.62;30.32;94227.59;5094456;28;20029;-78
2023/07/25 10:49:12;;;;;;;13.55;8.30;;;;;;;33.77;29.52;94219.38;5076912;28;20039;-78
2023/07/25 10:51:48;;;;;;;15.75;8.60;;;;;;;33.74;30.83;94214.56;5076525;28;20134;-78
2023/07/25 10:54:16;;;;;;;21.42;8.40;;;;;;;33.72;31.08;94211.34;5076240;28;20134;-79
2023/07/25 10:56:45;;;;;;;13.20;9.35;;;;;;;33.70;30.88;94210.81;5093299;28;20553;-79
2023/07/25 10:59:11;;;;;;;16.63;9.15;;;;;;;33.83;30.81;94200.47;5076419;28;20123;-78
2023/07/25 11:01:47;;;;;;;17.02;9.23;;;;;;;33.91;30.19;94184.47;5094426;28;20031;-78
2023/07/25 11:04:29;;;;;;;14.60;8.23;;;;;;;34.05;29.61;94173.00;5076247;28;20513;-79
2023/07/25 11:07:11;;;;;;;15.68;8.30;;;;;;;33.91;30.08;94176.38;5076105;28;20076;-79
2023/07/25 11:09:41;;;;;;;15.18;8.20;;;;;;;34.12;30.94;94168.06;5075598;28;20044;-78
2023/07/25 11:12:06;;;;;;;26.63;8.20;;;;;;;34.19;29.86;94168.50;5093941;28;20060;-78
2023/07/25 11:14:32;;;;;;;18.15;9.18;;;;;;;34.16;29.16;94164.50;5059102;28;20098;-79
2023/07/25 11:16:57;;;;;;;18.73;9.05;;;;;;;34.31;29.04;94162.69;5075688;28;20050;-78
2023/07/25 11:19:26;;;;;;;19.95;8.23;;;;;;;34.31;29.47;94170.75;5092849;28;20028;-79